sensor_id;sensor_type;location;lat;lon;timestamp;temperature;humidity
10662;DHT22;5379;51.034;7.006;2023-05-07T04:32:17;17.30;99.90
10662;DHT22;5379;51.034;7.006;2023-05-07T04:34:44;17.20;99.90
10662;DHT22;5379;51.034;7.006;2023-05-07T04:37:11;17.20;99.90
10662;DHT22;5379;51.034;7.006;2023-05-07T04:39:38;17.10;99.90
10662;DHT22;5379;51.034;7.006;2023-05-07T04:42:05;17.10;99.90
10662;DHT22;5379;51.034;7.006;2023-05-07T04:44:33;17.20;99.90
10662;DHT22;5379;51.034;7.006;2023-05-07T04:47:00;17.10;99.90
10662;DHT22;5379;51.034;7.006;2023-05-07T04:49:28;17.10;99.90
10662;DHT22;5379;51.034;7.006;2023-05-07T04:51:55;17.00;99.90
10662;DHT22;5379;51.034;7.006;2023-05-07T04:54:22;17.20;99.90
10662;DHT22;5379;51.034;7.006;2023-05-07T04:56:49;17.40;99.90
10662;DHT22;5379;51.034;7.006;2023-05-07T04:59:16;17.30;99.90
10662;DHT22;5379;51.034;7.006;2023-05-07T05:01:43;17.40;99.90
10662;DHT22;5379;51.034;7.006;2023-05-07T05:04:10;17.50;99.90
10662;DHT22;5379;51.034;7.006;2023-05-07T05:06:38;17.60;99.90
10662;DHT22;5379;51.034;7.006;2023-05-07T05:09:05;17.60;99.90
10662;DHT22;5379;51.034;7.006;2023-05-07T05:11:32;17.60;99.90
10662;DHT22;5379;51.034;7.006;2023-05-07T05:13:59;17.70;99.90
10662;DHT22;5379;51.034;7.006;2023-05-07T05:16:27;17.80;99.90
10662;DHT22;5379;51.034;7.006;2023-05-07T05:18:54;17.80;99.90
10662;DHT22;5379;51.034;7.006;2023-05-07T05:21:21;17.80;99.90
10662;DHT22;5379;51.034;7.006;2023-05-07T05:23:50;17.80;99.90
10662;DHT22;5379;51.034;7.006;2023-05-07T05:26:17;17.90;99.90
10662;DHT22;5379;51.034;7.006;2023-05-07T05:28:44;18.10;99.90
10662;DHT22;5379;51.034;7.006;2023-05-07T05:31:11;18.20;99.90
10662;DHT22;5379;51.034;7.006;2023-05-07T05:33:39;18.30;99.90
10662;DHT22;5379;51.034;7.006;2023-05-07T05:36:09;18.40;99.90
10662;DHT22;5379;51.034;7.006;2023-05-07T05:38:36;18.40;99.90
10662;DHT22;5379;51.034;7.006;2023-05-07T05:41:04;18.50;99.90
10662;DHT22;5379;51.034;7.006;2023-05-07T05:43:31;18.60;99.90
10662;DHT22;5379;51.034;7.006;2023-05-07T05:45:58;18.70;99.90
10662;DHT22;5379;51.034;7.006;2023-05-07T05:48:26;18.60;99.90
10662;DHT22;5379;51.034;7.006;2023-05-07T05:50:52;18.70;99.90
10662;DHT22;5379;51.034;7.006;2023-05-07T05:53:19;18.70;99.90
10662;DHT22;5379;51.034;7.006;2023-05-07T05:55:46;18.60;99.90
10662;DHT22;5379;51.034;7.006;2023-05-07T05:58:17;18.70;99.90
10662;DHT22;5379;51.034;7.006;2023-05-07T06:00:44;18.60;99.90
10662;DHT22;5379;51.034;7.006;2023-05-07T06:03:11;18.60;99.90
10662;DHT22;5379;51.034;7.006;2023-05-07T06:05:38;18.70;99.90
10662;DHT22;5379;51.034;7.006;2023-05-07T06:08:05;18.70;99.90
10662;DHT22;5379;51.034;7.006;2023-05-07T06:10:32;18.80;99.90
10662;DHT22;5379;51.034;7.006;2023-05-07T06:12:59;18.80;99.90
10662;DHT22;5379;51.034;7.006;2023-05-07T06:15:27;19.00;99.90
10662;DHT22;5379;51.034;7.006;2023-05-07T06:17:54;19.10;99.90
10662;DHT22;5379;51.034;7.006;2023-05-07T06:20:25;19.10;99.90
10662;DHT22;5379;51.034;7.006;2023-05-07T06:22:52;19.20;99.90
10662;DHT22;5379;51.034;7.006;2023-05-07T06:25:19;19.50;99.90
10662;DHT22;5379;51.034;7.006;2023-05-07T06:27:46;19.50;99.90
10662;DHT22;5379;51.034;7.006;2023-05-07T06:30:13;19.50;99.90
10662;DHT22;5379;51.034;7.006;2023-05-07T06:32:42;19.60;99.90
10662;DHT22;5379;51.034;7.006;2023-05-07T06:35:08;19.70;99.90
10662;DHT22;5379;51.034;7.006;2023-05-07T06:37:35;19.60;99.90
10662;DHT22;5379;51.034;7.006;2023-05-07T06:40:05;19.60;99.90
10662;DHT22;5379;51.034;7.006;2023-05-07T06:42:32;19.70;99.90
10662;DHT22;5379;51.034;7.006;2023-05-07T06:44:59;19.90;99.90
10662;DHT22;5379;51.034;7.006;2023-05-07T06:47:26;19.90;99.90
10662;DHT22;5379;51.034;7.006;2023-05-07T06:49:54;20.10;99.90
10662;DHT22;5379;51.034;7.006;2023-05-07T06:52:21;20.30;99.90
10662;DHT22;5379;51.034;7.006;2023-05-07T06:57:17;20.10;99.90
10662;DHT22;5379;51.034;7.006;2023-05-07T06:59:44;20.40;99.90
10662;DHT22;5379;51.034;7.006;2023-05-07T07:04:38;20.80;99.90
10662;DHT22;5379;51.034;7.006;2023-05-07T07:07:07;20.90;99.90
10662;DHT22;5379;51.034;7.006;2023-05-07T07:09:33;20.80;99.90
10662;DHT22;5379;51.034;7.006;2023-05-07T07:12:00;21.00;99.90
10662;DHT22;5379;51.034;7.006;2023-05-07T07:14:27;21.10;99.90
10662;DHT22;5379;51.034;7.006;2023-05-07T07:16:54;21.10;99.90
10662;DHT22;5379;51.034;7.006;2023-05-07T07:19:21;21.30;99.90
10662;DHT22;5379;51.034;7.006;2023-05-07T07:21:48;21.40;99.90
10662;DHT22;5379;51.034;7.006;2023-05-07T07:24:16;21.60;99.90
10662;DHT22;5379;51.034;7.006;2023-05-07T07:26:46;22.00;99.90
10662;DHT22;5379;51.034;7.006;2023-05-07T07:29:13;22.30;99.90
10662;DHT22;5379;51.034;7.006;2023-05-07T07:31:40;22.10;99.90
10662;DHT22;5379;51.034;7.006;2023-05-07T07:34:07;22.20;99.90
10662;DHT22;5379;51.034;7.006;2023-05-07T07:36:34;22.50;99.90
10662;DHT22;5379;51.034;7.006;2023-05-07T07:39:01;22.40;99.90
10662;DHT22;5379;51.034;7.006;2023-05-07T07:41:29;22.40;99.90
10662;DHT22;5379;51.034;7.006;2023-05-07T07:43:56;22.50;99.90
10662;DHT22;5379;51.034;7.006;2023-05-07T07:46:23;22.60;99.90
10662;DHT22;5379;51.034;7.006;2023-05-07T07:48:52;22.50;99.90
10662;DHT22;5379;51.034;7.006;2023-05-07T07:51:19;22.50;99.90
10662;DHT22;5379;51.034;7.006;2023-05-07T07:53:46;22.70;99.90
10662;DHT22;5379;51.034;7.006;2023-05-07T07:56:13;22.60;99.90
10662;DHT22;5379;51.034;7.006;2023-05-07T07:58:42;22.50;99.90
10662;DHT22;5379;51.034;7.006;2023-05-07T08:01:09;22.80;99.90
10662;DHT22;5379;51.034;7.006;2023-05-07T08:03:37;23.10;99.90
10662;DHT22;5379;51.034;7.006;2023-05-07T08:06:04;23.30;99.90
10662;DHT22;5379;51.034;7.006;2023-05-07T08:08:31;23.40;99.90
10662;DHT22;5379;51.034;7.006;2023-05-07T08:10:58;23.60;99.90
10662;DHT22;5379;51.034;7.006;2023-05-07T08:13:25;23.60;99.90
10662;DHT22;5379;51.034;7.006;2023-05-07T08:15:54;23.60;99.90
10662;DHT22;5379;51.034;7.006;2023-05-07T08:18:21;23.60;99.90
10662;DHT22;5379;51.034;7.006;2023-05-07T08:20:50;23.50;99.90
10662;DHT22;5379;51.034;7.006;2023-05-07T08:23:17;23.50;99.90
10662;DHT22;5379;51.034;7.006;2023-05-07T08:25:44;23.60;99.90
10662;DHT22;5379;51.034;7.006;2023-05-07T08:28:10;23.60;99.90
10662;DHT22;5379;51.034;7.006;2023-05-07T08:30:38;23.80;99.90
10662;DHT22;5379;51.034;7.006;2023-05-07T08:33:06;23.80;99.90
10662;DHT22;5379;51.034;7.006;2023-05-07T08:35:33;23.80;99.90
10662;DHT22;5379;51.034;7.006;2023-05-07T08:38:00;23.70;99.90
10662;DHT22;5379;51.034;7.006;2023-05-07T08:40:27;23.70;99.90
10662;DHT22;5379;51.034;7.006;2023-05-07T08:42:57;23.70;99.90
10662;DHT22;5379;51.034;7.006;2023-05-07T08:45:26;23.90;99.90
10662;DHT22;5379;51.034;7.006;2023-05-07T08:47:58;23.80;99.90
10662;DHT22;5379;51.034;7.006;2023-05-07T08:50:26;23.80;99.90
10662;DHT22;5379;51.034;7.006;2023-05-07T08:52:54;23.80;99.90
10662;DHT22;5379;51.034;7.006;2023-05-07T08:55:22;23.80;99.90
10662;DHT22;5379;51.034;7.006;2023-05-07T08:57:50;23.90;99.90
10662;DHT22;5379;51.034;7.006;2023-05-07T09:00:18;23.90;99.90
10662;DHT22;5379;51.034;7.006;2023-05-07T09:02:45;24.00;99.90
10662;DHT22;5379;51.034;7.006;2023-05-07T09:05:12;23.90;99.90
10662;DHT22;5379;51.034;7.006;2023-05-07T09:07:41;23.80;99.90
10662;DHT22;5379;51.034;7.006;2023-05-07T09:10:08;23.80;99.90
10662;DHT22;5379;51.034;7.006;2023-05-07T09:12:36;23.80;99.90
10662;DHT22;5379;51.034;7.006;2023-05-07T09:15:04;23.70;99.90
10662;DHT22;5379;51.034;7.006;2023-05-07T09:17:31;23.70;99.90
10662;DHT22;5379;51.034;7.006;2023-05-07T09:20:02;23.80;99.90
10662;DHT22;5379;51.034;7.006;2023-05-07T09:22:31;23.70;99.90
10662;DHT22;5379;51.034;7.006;2023-05-07T09:27:27;23.70;99.90
10662;DHT22;5379;51.034;7.006;2023-05-07T09:29:54;23.80;99.90
10662;DHT22;5379;51.034;7.006;2023-05-07T09:32:21;23.80;99.90
10662;DHT22;5379;51.034;7.006;2023-05-07T09:34:48;23.70;99.90
10662;DHT22;5379;51.034;7.006;2023-05-07T09:37:18;23.80;99.90
10662;DHT22;5379;51.034;7.006;2023-05-07T09:39:46;23.70;99.90
10662;DHT22;5379;51.034;7.006;2023-05-07T09:42:15;23.70;99.90
10662;DHT22;5379;51.034;7.006;2023-05-07T09:44:43;23.60;99.90
10662;DHT22;5379;51.034;7.006;2023-05-07T09:47:10;23.50;99.90
10662;DHT22;5379;51.034;7.006;2023-05-07T09:49:39;23.60;99.90
10662;DHT22;5379;51.034;7.006;2023-05-07T09:52:08;23.60;99.90
10662;DHT22;5379;51.034;7.006;2023-05-07T09:54:36;23.60;99.90
10662;DHT22;5379;51.034;7.006;2023-05-07T09:57:05;23.30;99.90
10662;DHT22;5379;51.034;7.006;2023-05-07T09:59:34;23.50;99.90
10662;DHT22;5379;51.034;7.006;2023-05-07T10:02:04;23.70;99.90
10662;DHT22;5379;51.034;7.006;2023-05-07T10:04:31;23.80;99.90
10662;DHT22;5379;51.034;7.006;2023-05-07T10:06:59;23.70;99.90
10662;DHT22;5379;51.034;7.006;2023-05-07T10:09:26;23.50;99.90
10662;DHT22;5379;51.034;7.006;2023-05-07T10:11:54;23.50;99.90
10662;DHT22;5379;51.034;7.006;2023-05-07T10:14:21;23.60;99.90
10662;DHT22;5379;51.034;7.006;2023-05-07T10:16:50;23.60;99.90
10662;DHT22;5379;51.034;7.006;2023-05-07T10:19:18;23.50;99.90
10662;DHT22;5379;51.034;7.006;2023-05-07T10:21:55;23.50;99.90
10662;DHT22;5379;51.034;7.006;2023-05-07T10:24:26;23.50;99.90
10662;DHT22;5379;51.034;7.006;2023-05-07T10:26:55;23.30;99.90
10662;DHT22;5379;51.034;7.006;2023-05-07T10:29:33;23.20;99.90
10662;DHT22;5379;51.034;7.006;2023-05-07T10:32:19;22.90;99.90
10662;DHT22;5379;51.034;7.006;2023-05-07T10:34:54;23.00;99.90
10662;DHT22;5379;51.034;7.006;2023-05-07T10:37:22;22.80;99.90
10662;DHT22;5379;51.034;7.006;2023-05-07T10:39:49;22.80;99.90
10662;DHT22;5379;51.034;7.006;2023-05-07T10:42:16;22.60;99.90
10662;DHT22;5379;51.034;7.006;2023-05-07T10:44:43;22.60;99.90
10662;DHT22;5379;51.034;7.006;2023-05-07T10:47:13;22.60;99.90
10662;DHT22;5379;51.034;7.006;2023-05-07T10:50:20;22.70;99.90
10662;DHT22;5379;51.034;7.006;2023-05-07T10:53:21;22.70;99.90
10662;DHT22;5379;51.034;7.006;2023-05-07T10:56:23;22.80;99.90
10662;DHT22;5379;51.034;7.006;2023-05-07T10:58:39;22.80;99.90
10662;DHT22;5379;51.034;7.006;2023-05-07T11:01:06;22.70;99.90
10662;DHT22;5379;51.034;7.006;2023-05-07T11:03:34;22.50;99.90
10662;DHT22;5379;51.034;7.006;2023-05-07T11:06:12;22.60;99.90
10662;DHT22;5379;51.034;7.006;2023-05-07T11:08:54;22.60;99.90
10662;DHT22;5379;51.034;7.006;2023-05-07T11:11:45;22.60;99.90
10662;DHT22;5379;51.034;7.006;2023-05-07T11:14:14;22.70;99.90
10662;DHT22;5379;51.034;7.006;2023-05-07T11:16:45;22.80;99.90
10662;DHT22;5379;51.034;7.006;2023-05-07T11:19:13;22.90;99.90
10662;DHT22;5379;51.034;7.006;2023-05-07T11:21:41;22.80;99.90
10662;DHT22;5379;51.034;7.006;2023-05-07T11:24:09;22.80;99.90
10662;DHT22;5379;51.034;7.006;2023-05-07T11:26:45;23.10;99.90
10662;DHT22;5379;51.034;7.006;2023-05-07T11:29:13;23.20;99.90
10662;DHT22;5379;51.034;7.006;2023-05-07T11:31:40;23.40;99.90
10662;DHT22;5379;51.034;7.006;2023-05-07T11:34:08;23.10;99.90
10662;DHT22;5379;51.034;7.006;2023-05-07T11:36:41;23.20;99.90
10662;DHT22;5379;51.034;7.006;2023-05-07T11:39:26;23.10;99.90
10662;DHT22;5379;51.034;7.006;2023-05-07T11:41:54;23.20;99.90
10662;DHT22;5379;51.034;7.006;2023-05-07T11:44:21;22.90;99.90
10662;DHT22;5379;51.034;7.006;2023-05-07T11:46:48;23.10;99.90
10662;DHT22;5379;51.034;7.006;2023-05-07T11:49:15;23.70;99.90
10662;DHT22;5379;51.034;7.006;2023-05-07T11:51:44;23.90;99.90
10662;DHT22;5379;51.034;7.006;2023-05-07T11:54:15;23.90;99.90
10662;DHT22;5379;51.034;7.006;2023-05-07T11:56:44;23.60;99.90
10662;DHT22;5379;51.034;7.006;2023-05-07T11:59:11;23.70;99.90
10662;DHT22;5379;51.034;7.006;2023-05-07T12:01:38;23.70;99.90
10662;DHT22;5379;51.034;7.006;2023-05-07T12:04:05;23.70;99.90
10662;DHT22;5379;51.034;7.006;2023-05-07T12:06:36;23.60;99.90
10662;DHT22;5379;51.034;7.006;2023-05-07T12:09:04;23.40;99.90
10662;DHT22;5379;51.034;7.006;2023-05-07T12:11:36;23.20;99.90
10662;DHT22;5379;51.034;7.006;2023-05-07T12:14:05;23.20;99.90
10662;DHT22;5379;51.034;7.006;2023-05-07T12:16:32;23.50;99.90
10662;DHT22;5379;51.034;7.006;2023-05-07T12:19:00;23.30;99.90
10662;DHT22;5379;51.034;7.006;2023-05-07T12:21:27;23.30;99.80
10662;DHT22;5379;51.034;7.006;2023-05-07T12:23:54;23.30;99.90
10662;DHT22;5379;51.034;7.006;2023-05-07T12:26:23;23.50;99.70
10662;DHT22;5379;51.034;7.006;2023-05-07T12:28:50;23.50;99.90
10662;DHT22;5379;51.034;7.006;2023-05-07T12:31:17;23.30;99.90
10662;DHT22;5379;51.034;7.006;2023-05-07T12:33:46;23.20;99.90
10662;DHT22;5379;51.034;7.006;2023-05-07T12:36:13;23.20;99.90
10662;DHT22;5379;51.034;7.006;2023-05-07T12:38:40;23.60;99.90
10662;DHT22;5379;51.034;7.006;2023-05-07T12:41:08;23.80;99.90
10662;DHT22;5379;51.034;7.006;2023-05-07T12:43:37;23.90;99.90
10662;DHT22;5379;51.034;7.006;2023-05-07T12:46:05;23.90;99.90
10662;DHT22;5379;51.034;7.006;2023-05-07T12:48:33;23.90;99.90
10662;DHT22;5379;51.034;7.006;2023-05-07T12:51:01;24.00;99.90
10662;DHT22;5379;51.034;7.006;2023-05-07T12:53:29;24.00;99.90
10662;DHT22;5379;51.034;7.006;2023-05-07T12:55:59;24.00;99.90
10662;DHT22;5379;51.034;7.006;2023-05-07T12:58:27;24.10;99.90
10662;DHT22;5379;51.034;7.006;2023-05-07T13:00:57;24.10;99.90
10662;DHT22;5379;51.034;7.006;2023-05-07T13:03:26;24.20;99.90
10662;DHT22;5379;51.034;7.006;2023-05-07T13:05:54;24.20;99.90
10662;DHT22;5379;51.034;7.006;2023-05-07T13:08:29;24.20;99.90
10662;DHT22;5379;51.034;7.006;2023-05-07T13:10:57;24.20;99.90
10662;DHT22;5379;51.034;7.006;2023-05-07T13:13:25;24.20;99.90
10662;DHT22;5379;51.034;7.006;2023-05-07T13:15:52;24.20;99.90
10662;DHT22;5379;51.034;7.006;2023-05-07T13:18:20;24.30;99.90
10662;DHT22;5379;51.034;7.006;2023-05-07T13:20:47;24.30;99.90
10662;DHT22;5379;51.034;7.006;2023-05-07T13:23:14;24.20;99.90
10662;DHT22;5379;51.034;7.006;2023-05-07T13:25:41;24.30;99.90
10662;DHT22;5379;51.034;7.006;2023-05-07T13:28:08;24.20;99.90
10662;DHT22;5379;51.034;7.006;2023-05-07T13:30:35;24.30;99.70
10662;DHT22;5379;51.034;7.006;2023-05-07T13:33:02;24.30;99.90
10662;DHT22;5379;51.034;7.006;2023-05-07T13:35:30;24.30;99.80
10662;DHT22;5379;51.034;7.006;2023-05-07T13:37:57;24.30;99.90
10662;DHT22;5379;51.034;7.006;2023-05-07T13:40:25;24.20;99.70
10662;DHT22;5379;51.034;7.006;2023-05-07T13:42:57;24.20;99.90
10662;DHT22;5379;51.034;7.006;2023-05-07T13:45:24;23.80;99.90
10662;DHT22;5379;51.034;7.006;2023-05-07T13:47:52;23.10;99.90
10662;DHT22;5379;51.034;7.006;2023-05-07T13:50:19;23.10;99.80
10662;DHT22;5379;51.034;7.006;2023-05-07T13:52:47;23.80;99.90
10662;DHT22;5379;51.034;7.006;2023-05-07T13:55:16;24.50;99.90
10662;DHT22;5379;51.034;7.006;2023-05-07T13:57:43;24.60;99.90
10662;DHT22;5379;51.034;7.006;2023-05-07T14:00:11;24.80;99.90
10662;DHT22;5379;51.034;7.006;2023-05-07T14:02:39;24.50;99.50
10662;DHT22;5379;51.034;7.006;2023-05-07T14:05:06;23.90;99.90
10662;DHT22;5379;51.034;7.006;2023-05-07T14:07:34;23.50;99.90
10662;DHT22;5379;51.034;7.006;2023-05-07T14:10:03;23.60;99.90
10662;DHT22;5379;51.034;7.006;2023-05-07T14:12:31;23.90;99.90
10662;DHT22;5379;51.034;7.006;2023-05-07T14:14:58;23.90;99.90
10662;DHT22;5379;51.034;7.006;2023-05-07T14:17:25;24.30;99.90
10662;DHT22;5379;51.034;7.006;2023-05-07T14:19:53;24.30;99.90
10662;DHT22;5379;51.034;7.006;2023-05-07T14:22:20;24.50;99.90
10662;DHT22;5379;51.034;7.006;2023-05-07T14:24:48;24.60;99.90
10662;DHT22;5379;51.034;7.006;2023-05-07T14:27:16;24.80;99.90
10662;DHT22;5379;51.034;7.006;2023-05-07T14:29:43;24.80;99.90
10662;DHT22;5379;51.034;7.006;2023-05-07T14:32:11;24.70;99.90
10662;DHT22;5379;51.034;7.006;2023-05-07T14:34:38;24.70;99.90
10662;DHT22;5379;51.034;7.006;2023-05-07T14:37:05;24.70;99.90
10662;DHT22;5379;51.034;7.006;2023-05-07T14:39:32;24.40;99.90
10662;DHT22;5379;51.034;7.006;2023-05-07T14:42:02;24.40;99.90
10662;DHT22;5379;51.034;7.006;2023-05-07T14:44:30;24.70;99.90
10662;DHT22;5379;51.034;7.006;2023-05-07T14:46:57;24.70;99.90
10662;DHT22;5379;51.034;7.006;2023-05-07T14:49:24;23.90;99.90
10662;DHT22;5379;51.034;7.006;2023-05-07T14:51:51;23.80;99.90
10662;DHT22;5379;51.034;7.006;2023-05-07T14:54:18;23.20;99.90
10662;DHT22;5379;51.034;7.006;2023-05-07T14:56:45;23.20;99.90
10662;DHT22;5379;51.034;7.006;2023-05-07T14:59:12;23.20;99.90
10662;DHT22;5379;51.034;7.006;2023-05-07T15:01:40;23.00;99.90
10662;DHT22;5379;51.034;7.006;2023-05-07T15:04:11;22.70;99.90
10662;DHT22;5379;51.034;7.006;2023-05-07T15:06:37;22.20;99.90
10662;DHT22;5379;51.034;7.006;2023-05-07T15:09:05;22.30;99.90
10662;DHT22;5379;51.034;7.006;2023-05-07T15:11:33;22.20;99.90
10662;DHT22;5379;51.034;7.006;2023-05-07T15:14:00;21.70;99.90
10662;DHT22;5379;51.034;7.006;2023-05-07T15:16:27;21.60;99.90
10662;DHT22;5379;51.034;7.006;2023-05-07T15:18:55;21.50;99.90
10662;DHT22;5379;51.034;7.006;2023-05-07T15:21:22;21.60;99.90
10662;DHT22;5379;51.034;7.006;2023-05-07T15:23:49;21.60;99.90
10662;DHT22;5379;51.034;7.006;2023-05-07T15:26:16;21.60;99.90
10662;DHT22;5379;51.034;7.006;2023-05-07T15:28:43;21.80;99.90
10662;DHT22;5379;51.034;7.006;2023-05-07T15:31:10;22.30;99.90
10662;DHT22;5379;51.034;7.006;2023-05-07T15:33:37;22.40;99.90
10662;DHT22;5379;51.034;7.006;2023-05-07T15:36:10;22.80;99.90
10662;DHT22;5379;51.034;7.006;2023-05-07T15:38:37;23.20;99.90
10662;DHT22;5379;51.034;7.006;2023-05-07T15:41:04;23.20;99.90
10662;DHT22;5379;51.034;7.006;2023-05-07T15:43:31;23.60;99.90
10662;DHT22;5379;51.034;7.006;2023-05-07T15:45:58;23.70;99.90
10662;DHT22;5379;51.034;7.006;2023-05-07T15:48:25;23.30;99.90
10662;DHT22;5379;51.034;7.006;2023-05-07T15:50:52;22.90;99.90
10662;DHT22;5379;51.034;7.006;2023-05-07T15:53:20;22.80;99.90
10662;DHT22;5379;51.034;7.006;2023-05-07T15:55:47;22.70;99.90
10662;DHT22;5379;51.034;7.006;2023-05-07T15:58:14;22.80;99.90
10662;DHT22;5379;51.034;7.006;2023-05-07T16:00:44;23.50;99.90
10662;DHT22;5379;51.034;7.006;2023-05-07T16:03:11;23.50;99.90
10662;DHT22;5379;51.034;7.006;2023-05-07T16:05:38;23.70;99.90
10662;DHT22;5379;51.034;7.006;2023-05-07T16:08:05;23.90;99.90
10662;DHT22;5379;51.034;7.006;2023-05-07T16:10:33;23.20;99.90
10662;DHT22;5379;51.034;7.006;2023-05-07T16:13:00;23.30;99.90
10662;DHT22;5379;51.034;7.006;2023-05-07T16:15:28;23.20;99.90
10662;DHT22;5379;51.034;7.006;2023-05-07T16:17:55;23.00;99.90
10662;DHT22;5379;51.034;7.006;2023-05-07T16:20:26;23.60;99.90
10662;DHT22;5379;51.034;7.006;2023-05-07T16:22:54;24.10;99.90
10662;DHT22;5379;51.034;7.006;2023-05-07T16:25:21;23.60;99.90
10662;DHT22;5379;51.034;7.006;2023-05-07T16:27:52;23.90;99.90
10662;DHT22;5379;51.034;7.006;2023-05-07T16:30:19;23.90;99.90
10662;DHT22;5379;51.034;7.006;2023-05-07T16:32:46;24.20;99.90
10662;DHT22;5379;51.034;7.006;2023-05-07T16:35:13;23.80;99.90
10662;DHT22;5379;51.034;7.006;2023-05-07T16:37:40;23.80;99.90
10662;DHT22;5379;51.034;7.006;2023-05-07T16:40:08;23.50;99.90
10662;DHT22;5379;51.034;7.006;2023-05-07T16:42:36;23.60;99.90
10662;DHT22;5379;51.034;7.006;2023-05-07T16:45:05;23.60;99.90
10662;DHT22;5379;51.034;7.006;2023-05-07T16:47:33;23.20;99.90
10662;DHT22;5379;51.034;7.006;2023-05-07T16:50:00;23.30;99.90
10662;DHT22;5379;51.034;7.006;2023-05-07T16:52:30;23.20;99.90
10662;DHT22;5379;51.034;7.006;2023-05-07T16:54:57;24.20;99.90
10662;DHT22;5379;51.034;7.006;2023-05-07T16:57:25;24.20;99.90
10662;DHT22;5379;51.034;7.006;2023-05-07T16:59:54;24.50;99.90
10662;DHT22;5379;51.034;7.006;2023-05-07T17:02:23;24.70;99.90
10662;DHT22;5379;51.034;7.006;2023-05-07T17:04:50;24.10;99.90
10662;DHT22;5379;51.034;7.006;2023-05-07T17:07:17;23.50;99.90
10662;DHT22;5379;51.034;7.006;2023-05-07T17:09:44;24.00;99.90
10662;DHT22;5379;51.034;7.006;2023-05-07T17:12:11;24.30;99.90
10662;DHT22;5379;51.034;7.006;2023-05-07T17:14:38;24.70;99.90
10662;DHT22;5379;51.034;7.006;2023-05-07T17:17:05;24.80;99.90
10662;DHT22;5379;51.034;7.006;2023-05-07T17:19:36;24.80;99.90
10662;DHT22;5379;51.034;7.006;2023-05-07T17:22:03;24.80;99.90
10662;DHT22;5379;51.034;7.006;2023-05-07T17:24:30;24.90;99.90
10662;DHT22;5379;51.034;7.006;2023-05-07T17:26:57;24.90;99.90
10662;DHT22;5379;51.034;7.006;2023-05-07T17:29:24;24.90;99.90
10662;DHT22;5379;51.034;7.006;2023-05-07T17:31:51;24.90;99.90
10662;DHT22;5379;51.034;7.006;2023-05-07T17:34:18;25.00;99.90
10662;DHT22;5379;51.034;7.006;2023-05-07T17:36:46;24.90;99.90
10662;DHT22;5379;51.034;7.006;2023-05-07T17:39:13;25.00;99.90
10662;DHT22;5379;51.034;7.006;2023-05-07T17:41:40;25.00;99.90
10662;DHT22;5379;51.034;7.006;2023-05-07T17:44:07;24.70;99.90
10662;DHT22;5379;51.034;7.006;2023-05-07T17:46:34;24.70;99.90
10662;DHT22;5379;51.034;7.006;2023-05-07T17:49:01;24.60;99.90
10662;DHT22;5379;51.034;7.006;2023-05-07T17:51:28;24.80;99.90
10662;DHT22;5379;51.034;7.006;2023-05-07T17:53:57;24.80;99.90
10662;DHT22;5379;51.034;7.006;2023-05-07T17:56:24;24.80;99.90
10662;DHT22;5379;51.034;7.006;2023-05-07T17:58:51;24.70;99.90
10662;DHT22;5379;51.034;7.006;2023-05-07T18:01:19;24.80;99.90
10662;DHT22;5379;51.034;7.006;2023-05-07T18:03:46;24.90;99.90
10662;DHT22;5379;51.034;7.006;2023-05-07T18:06:13;24.90;99.90
10662;DHT22;5379;51.034;7.006;2023-05-07T18:08:43;25.00;99.90
10662;DHT22;5379;51.034;7.006;2023-05-07T18:11:12;25.00;99.90
10662;DHT22;5379;51.034;7.006;2023-05-07T18:13:39;25.00;99.90
10662;DHT22;5379;51.034;7.006;2023-05-07T18:16:06;24.90;99.90
10662;DHT22;5379;51.034;7.006;2023-05-07T18:18:33;24.80;99.90
10662;DHT22;5379;51.034;7.006;2023-05-07T18:21:00;24.80;99.90
10662;DHT22;5379;51.034;7.006;2023-05-07T18:23:27;24.80;99.90
10662;DHT22;5379;51.034;7.006;2023-05-07T18:25:54;24.70;99.90
10662;DHT22;5379;51.034;7.006;2023-05-07T18:28:22;24.70;99.90
10662;DHT22;5379;51.034;7.006;2023-05-07T18:30:49;24.70;99.90
10662;DHT22;5379;51.034;7.006;2023-05-07T18:33:16;24.50;99.90
10662;DHT22;5379;51.034;7.006;2023-05-07T18:35:43;24.30;99.90
10662;DHT22;5379;51.034;7.006;2023-05-07T18:38:10;24.20;99.90
10662;DHT22;5379;51.034;7.006;2023-05-07T18:40:37;24.40;99.90
10662;DHT22;5379;51.034;7.006;2023-05-07T18:43:08;24.40;99.90
10662;DHT22;5379;51.034;7.006;2023-05-07T18:45:37;24.30;99.90
10662;DHT22;5379;51.034;7.006;2023-05-07T18:48:04;24.10;99.90
10662;DHT22;5379;51.034;7.006;2023-05-07T18:50:32;24.40;99.90
10662;DHT22;5379;51.034;7.006;2023-05-07T18:52:59;24.40;99.90
10662;DHT22;5379;51.034;7.006;2023-05-07T18:55:26;24.50;99.90
10662;DHT22;5379;51.034;7.006;2023-05-07T18:57:53;24.50;99.90
10662;DHT22;5379;51.034;7.006;2023-05-07T19:00:20;24.50;99.90
10662;DHT22;5379;51.034;7.006;2023-05-07T19:02:48;24.60;99.90
10662;DHT22;5379;51.034;7.006;2023-05-07T19:05:16;24.50;99.90
10662;DHT22;5379;51.034;7.006;2023-05-07T19:07:44;24.40;99.90
10662;DHT22;5379;51.034;7.006;2023-05-07T19:10:11;24.20;99.90
10662;DHT22;5379;51.034;7.006;2023-05-07T19:12:38;24.40;99.90
10662;DHT22;5379;51.034;7.006;2023-05-07T19:15:07;24.40;99.90
10662;DHT22;5379;51.034;7.006;2023-05-07T19:17:34;24.20;99.90
10662;DHT22;5379;51.034;7.006;2023-05-07T19:20:02;24.10;99.90
10662;DHT22;5379;51.034;7.006;2023-05-07T19:22:30;24.20;99.90
10662;DHT22;5379;51.034;7.006;2023-05-07T19:24:57;24.20;99.90
10662;DHT22;5379;51.034;7.006;2023-05-07T19:27:24;24.20;99.90
10662;DHT22;5379;51.034;7.006;2023-05-07T19:29:51;24.30;99.90
10662;DHT22;5379;51.034;7.006;2023-05-07T19:32:18;24.30;99.90
10662;DHT22;5379;51.034;7.006;2023-05-07T19:34:45;24.00;99.90
10662;DHT22;5379;51.034;7.006;2023-05-07T19:37:14;24.00;99.90
10662;DHT22;5379;51.034;7.006;2023-05-07T19:39:41;23.90;99.90
10662;DHT22;5379;51.034;7.006;2023-05-07T19:42:08;23.90;99.90
10662;DHT22;5379;51.034;7.006;2023-05-07T19:44:35;23.90;99.90
10662;DHT22;5379;51.034;7.006;2023-05-07T19:47:02;23.90;99.90
10662;DHT22;5379;51.034;7.006;2023-05-07T19:49:30;23.80;99.90
10662;DHT22;5379;51.034;7.006;2023-05-07T19:51:57;23.80;99.90
10662;DHT22;5379;51.034;7.006;2023-05-07T19:54:28;23.60;99.90
10662;DHT22;5379;51.034;7.006;2023-05-07T19:56:55;23.60;99.90
10662;DHT22;5379;51.034;7.006;2023-05-07T19:59:22;23.50;99.90
10662;DHT22;5379;51.034;7.006;2023-05-07T20:01:49;23.50;99.90
10662;DHT22;5379;51.034;7.006;2023-05-07T20:04:16;23.50;99.90
10662;DHT22;5379;51.034;7.006;2023-05-07T20:06:43;23.60;99.90
10662;DHT22;5379;51.034;7.006;2023-05-07T20:09:10;23.80;99.90
10662;DHT22;5379;51.034;7.006;2023-05-07T20:11:39;23.90;99.90
10662;DHT22;5379;51.034;7.006;2023-05-07T20:14:06;23.90;99.90
10662;DHT22;5379;51.034;7.006;2023-05-07T20:16:34;23.60;99.90
10662;DHT22;5379;51.034;7.006;2023-05-07T20:19:01;23.20;99.90
10662;DHT22;5379;51.034;7.006;2023-05-07T20:21:28;23.20;99.90
10662;DHT22;5379;51.034;7.006;2023-05-07T20:23:55;23.20;99.90
10662;DHT22;5379;51.034;7.006;2023-05-07T20:26:22;23.00;99.90
10662;DHT22;5379;51.034;7.006;2023-05-07T20:28:52;23.00;99.90